createdAt,value
2019-02-18T00:00:14.441Z,18.3
2019-02-18T00:01:03.906Z,18.3
2019-02-18T00:01:53.521Z,18.2
2019-02-18T00:02:44.044Z,18.1
2019-02-18T00:03:35.034Z,18.1
2019-02-18T00:04:23.923Z,18.6
2019-02-18T00:05:14.273Z,19.2
2019-02-18T00:06:04.892Z,19.7
2019-02-18T00:06:54.705Z,20
2019-02-18T00:07:44.423Z,20.3
2019-02-18T00:08:34.470Z,20.6
2019-02-18T00:09:24.293Z,20.8
2019-02-18T00:10:14.688Z,21
2019-02-18T00:11:54.757Z,21.3
2019-02-18T00:12:45.095Z,20.9
2019-02-18T00:13:35.362Z,20.4
2019-02-18T00:14:24.275Z,20.1
2019-02-18T00:15:15.286Z,19.9
2019-02-18T00:16:04.735Z,19.6
2019-02-18T00:16:54.897Z,19.5
2019-02-18T00:17:45.365Z,19.4
2019-02-18T00:18:36.028Z,19.3
2019-02-18T00:19:24.955Z,19.1
2019-02-18T00:20:15.015Z,19.1
2019-02-18T00:21:06.223Z,18.9
2019-02-18T00:21:55.665Z,18.9
2019-02-18T00:22:45.709Z,18.8
2019-02-18T00:23:36.089Z,18.8
2019-02-18T00:24:25.614Z,18.6
2019-02-18T00:25:15.932Z,18.5
2019-02-18T00:26:05.241Z,18.4
2019-02-18T00:26:55.732Z,18.3
2019-02-18T00:27:46.432Z,18.2
2019-02-18T00:28:37.967Z,18.1
2019-02-18T00:29:24.902Z,18.1
2019-02-18T00:30:14.955Z,18.6
2019-02-18T00:31:05.271Z,19.1
2019-02-18T00:31:56.938Z,19.6
2019-02-18T00:32:46.981Z,20
2019-02-18T00:33:36.741Z,20.3
2019-02-18T00:34:26.794Z,20.6
2019-02-18T00:35:16.439Z,20.8
2019-02-18T00:36:07.561Z,20.9
2019-02-18T00:37:45.971Z,21.3
2019-02-18T00:38:36.270Z,20.9
2019-02-18T00:39:26.381Z,20.5
2019-02-18T00:40:17.221Z,20.2
2019-02-18T00:41:06.201Z,19.9
2019-02-18T00:41:58.068Z,19.7
2019-02-18T00:42:46.828Z,19.5
2019-02-18T00:43:37.468Z,19.4
2019-02-18T00:44:27.073Z,19.3
2019-02-18T00:45:17.366Z,19.1
2019-02-18T00:46:06.834Z,19
2019-02-18T00:46:56.968Z,18.9
2019-02-18T00:47:49.108Z,18.9
2019-02-18T00:48:37.246Z,18.8
2019-02-18T00:50:16.801Z,18.6
2019-02-18T00:51:06.830Z,18.5
2019-02-18T00:51:57.211Z,18.3
2019-02-18T00:52:47.586Z,18.3
2019-02-18T00:53:38.468Z,18.2
2019-02-18T00:54:28.473Z,18.1
2019-02-18T00:55:17.742Z,18.2
2019-02-18T00:56:07.258Z,18.8
2019-02-18T00:56:57.775Z,19.3
2019-02-18T00:57:47.672Z,19.8
2019-02-18T00:58:38.258Z,20.1
2019-02-18T00:59:28.343Z,20.4
2019-02-18T01:00:18.280Z,20.6
2019-02-18T01:01:07.827Z,20.8
2019-02-18T01:01:58.192Z,20.9
2019-02-18T01:02:47.952Z,21.1
2019-02-18T01:03:38.552Z,21.2
2019-02-18T01:04:28.922Z,21
2019-02-18T01:05:18.507Z,20.6
2019-02-18T01:06:07.932Z,20.2
2019-02-18T01:06:58.825Z,19.9
2019-02-18T01:07:48.597Z,19.7
2019-02-18T01:08:38.964Z,19.5
2019-02-18T01:09:29.277Z,19.4
2019-02-18T01:10:19.347Z,19.3
2019-02-18T01:11:08.640Z,19.1
2019-02-18T01:11:59.127Z,19
2019-02-18T01:12:48.929Z,18.9
2019-02-18T01:13:39.227Z,18.9
2019-02-18T01:14:29.569Z,18.8
2019-02-18T01:16:09.752Z,18.6
2019-02-18T01:16:58.384Z,18.4
2019-02-18T01:17:49.543Z,18.3
2019-02-18T01:18:39.884Z,18.3
2019-02-18T01:19:29.669Z,18.1
2019-02-18T01:20:19.611Z,18.1
2019-02-18T01:21:09.276Z,18.3
2019-02-18T01:21:59.251Z,18.9
2019-02-18T01:22:50.889Z,19.4
2019-02-18T01:23:40.577Z,19.8
2019-02-18T01:24:29.224Z,20.1
2019-02-18T01:25:19.403Z,20.3
2019-02-18T01:26:10.141Z,20.6
2019-02-18T01:26:59.601Z,20.7
2019-02-18T01:27:50.056Z,20.9
2019-02-18T01:28:40.326Z,21.1
2019-02-18T01:29:30.058Z,21.2
2019-02-18T01:30:19.653Z,21.1
2019-02-18T01:31:09.733Z,20.6
2019-02-18T01:32:00.559Z,19.8
2019-02-18T01:32:51.138Z,19
2019-02-18T01:33:40.041Z,18.3
2019-02-18T01:34:31.260Z,18.2
2019-02-18T01:35:20.238Z,18.3
2019-02-18T01:36:10.598Z,18.8
2019-02-18T01:37:00.298Z,19.4
2019-02-18T01:37:53.970Z,19.8
2019-02-18T01:38:41.087Z,20.3
2019-02-18T01:39:31.090Z,20.4
2019-02-18T01:40:21.241Z,20.7
2019-02-18T01:41:11.750Z,20.9
2019-02-18T01:42:00.905Z,21.1
2019-02-18T01:42:51.550Z,21.2
2019-02-18T01:43:40.507Z,20.8
2019-02-18T01:44:31.440Z,20.4
2019-02-18T01:45:20.308Z,20.1
2019-02-18T01:46:11.796Z,19.8
2019-02-18T01:47:01.872Z,19.6
2019-02-18T01:47:51.332Z,19.4
2019-02-18T01:48:41.980Z,19.3
2019-02-18T01:49:30.918Z,19.1
2019-02-18T01:50:21.974Z,19
2019-02-18T01:51:11.562Z,18.9
2019-02-18T01:52:01.074Z,18.8
2019-02-18T01:52:51.734Z,18.8
2019-02-18T01:53:41.452Z,18.8
2019-02-18T01:54:30.968Z,18.6
2019-02-18T01:55:22.227Z,18.5
2019-02-18T01:56:12.738Z,18.4
2019-02-18T01:57:01.989Z,18.3
2019-02-18T01:57:52.556Z,18.3
2019-02-18T01:58:41.606Z,18.1
2019-02-18T01:59:32.099Z,18.1
2019-02-18T02:00:21.531Z,18.3
2019-02-18T02:01:12.342Z,18.9
2019-02-18T02:02:01.534Z,19.4
2019-02-18T02:02:52.286Z,19.8
2019-02-18T02:03:43.363Z,20.1
2019-02-18T02:04:32.026Z,20.4
2019-02-18T02:05:23.034Z,20.6
2019-02-18T02:06:11.778Z,20.7
2019-02-18T02:07:03.278Z,20.9
2019-02-18T02:08:04.063Z,21
2019-02-18T02:08:42.315Z,21.2
2019-02-18T02:09:32.325Z,21.1
2019-02-18T02:10:22.733Z,20.6
2019-02-18T02:11:12.474Z,20.2
2019-02-18T02:12:02.634Z,19.9
2019-02-18T02:12:53.890Z,19.6
2019-02-18T02:13:43.963Z,19.4
2019-02-18T02:14:32.473Z,19.3
2019-02-18T02:15:23.854Z,19.2
2019-02-18T02:16:13.545Z,19
2019-02-18T02:17:03.126Z,18.9
2019-02-18T02:17:53.125Z,18.8
2019-02-18T02:18:43.790Z,18.8
2019-02-18T02:19:33.536Z,18.8
2019-02-18T02:20:23.357Z,18.6
2019-02-18T02:21:13.205Z,18.5
2019-02-18T02:22:03.693Z,18.4
2019-02-18T02:22:54.041Z,18.3
2019-02-18T02:23:44.367Z,18.2
2019-02-18T02:24:33.892Z,18.1
2019-02-18T02:25:24.257Z,18.1
2019-02-18T02:26:14.557Z,18.3
2019-02-18T02:27:03.782Z,18.9
2019-02-18T02:27:54.390Z,19.4
2019-02-18T02:28:44.214Z,19.8
2019-02-18T02:29:34.044Z,20
2019-02-18T02:30:25.072Z,20.3
2019-02-18T02:31:14.816Z,20.4
2019-02-18T02:32:05.163Z,20.6
2019-02-18T02:32:54.552Z,20.8
2019-02-18T02:33:44.851Z,20.9
2019-02-18T02:34:34.953Z,21.1
2019-02-18T02:36:15.322Z,20.8
2019-02-18T02:37:05.307Z,20.3
2019-02-18T02:37:54.991Z,19.9
2019-02-18T02:38:44.426Z,19.7
2019-02-18T02:39:35.894Z,19.5
2019-02-18T02:40:24.767Z,19.3
2019-02-18T02:41:15.400Z,19.2
2019-02-18T02:42:04.905Z,19.1
2019-02-18T02:42:55.859Z,18.9
2019-02-18T02:43:45.893Z,18.8
2019-02-18T02:44:36.202Z,18.8
2019-02-18T02:45:26.296Z,18.6
2019-02-18T02:47:05.603Z,18.6
2019-02-18T02:47:55.507Z,18.4
2019-02-18T02:48:46.452Z,18.3
2019-02-18T02:49:36.371Z,18.3
2019-02-18T02:50:26.588Z,18.1
2019-02-18T02:51:16.718Z,18.1
2019-02-18T02:52:06.366Z,18
2019-02-18T02:52:55.739Z,18.4
2019-02-18T02:53:46.688Z,18.9
2019-02-18T02:54:35.323Z,19.4
2019-02-18T02:55:26.050Z,19.7
2019-02-18T02:56:16.212Z,20
2019-02-18T02:57:05.617Z,20.2
2019-02-18T02:57:55.712Z,20.4
2019-02-18T02:58:45.472Z,20.6
2019-02-18T02:59:35.598Z,20.7
2019-02-18T03:00:26.038Z,20.8
2019-02-18T03:01:17.643Z,20.9
2019-02-18T03:02:06.077Z,21.1
2019-02-18T03:02:56.666Z,21
2019-02-18T03:03:46.175Z,20.6
2019-02-18T03:04:35.742Z,20.1
2019-02-18T03:08:22.468Z,19.2
2019-02-18T03:08:58.567Z,19
2019-02-18T03:09:49.045Z,18.9
2019-02-18T03:10:38.862Z,18.8
2019-02-18T03:11:28.877Z,18.8
2019-02-18T03:12:19.006Z,18.6
2019-02-18T03:13:09.011Z,18.6
2019-02-18T03:13:59.062Z,18.6
2019-02-18T03:14:48.874Z,18.4
2019-02-18T03:15:39.535Z,18.3
2019-02-18T03:16:28.484Z,18.2
2019-02-18T03:17:18.611Z,18.1
2019-02-18T03:18:10.259Z,18
2019-02-18T03:18:59.706Z,18
2019-02-18T03:19:49.969Z,18.3
2019-02-18T03:20:40.051Z,18.9
2019-02-18T03:21:29.873Z,19.3
2019-02-18T03:22:19.538Z,19.7
2019-02-18T03:23:09.437Z,19.9
2019-02-18T03:24:00.413Z,20.1
2019-02-18T03:24:49.295Z,20.4
2019-02-18T03:25:40.448Z,20.5
2019-02-18T03:26:30.430Z,20.6
2019-02-18T03:27:20.021Z,20.8
2019-02-18T03:28:09.421Z,20.9
2019-02-18T03:29:01.108Z,21
2019-02-18T03:29:51.516Z,21
2019-02-18T03:30:41.010Z,20.6
2019-02-18T03:31:30.766Z,20.2
2019-02-18T03:32:20.533Z,19.9
2019-02-18T03:33:11.989Z,19.6
2019-02-18T03:34:01.689Z,19.4
2019-02-18T03:34:50.520Z,19.3
2019-02-18T03:35:41.903Z,19.1
2019-02-18T03:36:31.101Z,19
2019-02-18T03:37:21.218Z,18.8
2019-02-18T03:38:11.896Z,18.8
2019-02-18T03:39:01.608Z,18.6
2019-02-18T03:39:51.953Z,18.6
2019-02-18T03:40:41.685Z,18.6
2019-02-18T03:41:31.979Z,18.4
2019-02-18T03:42:21.533Z,18.3
2019-02-18T03:43:11.247Z,18.2
2019-02-18T03:44:01.645Z,18.1
2019-02-18T03:44:51.960Z,18
2019-02-18T03:45:41.520Z,17.9
2019-02-18T03:46:32.454Z,18.1
2019-02-18T03:48:12.282Z,19.1
2019-02-18T03:49:01.707Z,19.6
2019-02-18T03:49:52.410Z,19.8
2019-02-18T03:50:42.300Z,20
2019-02-18T03:51:32.447Z,20.2
2019-02-18T03:52:22.765Z,20.4
2019-02-18T03:53:12.588Z,20.5
2019-02-18T03:54:02.567Z,20.6
2019-02-18T03:54:52.678Z,20.8
2019-02-18T03:55:42.514Z,20.9
2019-02-18T03:56:32.550Z,20.9
2019-02-18T03:57:22.569Z,21.1
2019-02-18T03:58:12.630Z,20.6
2019-02-18T03:59:02.486Z,20.3
2019-02-18T03:59:52.786Z,19.9
2019-02-18T04:00:42.321Z,19.6
2019-02-18T04:01:33.424Z,19.4
2019-02-18T04:02:22.649Z,19.2
2019-02-18T04:03:12.686Z,19.1
2019-02-18T04:04:03.095Z,18.9
2019-02-18T04:04:53.691Z,18.8
2019-02-18T04:05:43.156Z,18.8
2019-02-18T04:06:32.496Z,18.6
2019-02-18T04:07:23.856Z,18.6
2019-02-18T04:08:13.542Z,18.5
2019-02-18T04:09:03.963Z,18.4
2019-02-18T04:09:53.135Z,18.3
2019-02-18T04:10:43.535Z,18.1
2019-02-18T04:11:33.961Z,18.1
2019-02-18T04:12:22.769Z,17.9
2019-02-18T04:13:14.808Z,17.9
2019-02-18T04:14:04.406Z,18.3
2019-02-18T04:14:54.662Z,18.8
2019-02-18T04:15:43.803Z,19.3
2019-02-18T04:16:34.124Z,19.6
2019-02-18T04:17:23.418Z,19.8
2019-02-18T04:18:14.328Z,20.1
2019-02-18T04:19:04.350Z,20.3
2019-02-18T04:19:55.982Z,20.4
2019-02-18T04:20:44.278Z,20.4
2019-02-18T04:21:34.075Z,19.9
2019-02-18T04:22:24.316Z,19.3
2019-02-18T04:23:14.379Z,18.8
2019-02-18T04:24:04.116Z,18.1
2019-02-18T04:24:54.460Z,17.4
2019-02-18T04:25:44.695Z,16.7
2019-02-18T04:26:34.973Z,16.7
2019-02-18T04:27:24.879Z,16.8
2019-02-18T04:28:14.389Z,17.5
2019-02-18T04:29:04.737Z,18.1
2019-02-18T04:30:44.897Z,19.2
2019-02-18T04:31:35.347Z,19.6
2019-02-18T04:32:25.511Z,19.9
2019-02-18T04:33:15.659Z,20.1
2019-02-18T04:34:05.084Z,20.3
2019-02-18T04:34:55.385Z,20.4
2019-02-18T04:35:45.488Z,20.6
2019-02-18T04:36:36.129Z,20.8
2019-02-18T04:37:25.872Z,20.8
2019-02-18T04:38:15.103Z,21
2019-02-18T04:39:05.404Z,21.1
2019-02-18T04:39:55.649Z,20.6
2019-02-18T04:40:45.566Z,20.2
2019-02-18T04:41:36.189Z,19.8
2019-02-18T04:42:26.478Z,19.6
2019-02-18T04:43:16.795Z,19.4
2019-02-18T04:44:06.129Z,19.2
2019-02-18T04:44:55.579Z,19
2019-02-18T04:45:45.435Z,18.9
2019-02-18T04:46:37.141Z,18.8
2019-02-18T04:48:16.992Z,18.6
2019-02-18T04:49:07.044Z,18.6
2019-02-18T04:49:57.242Z,18.4
2019-02-18T04:50:47.101Z,18.3
2019-02-18T04:51:36.331Z,18.2
2019-02-18T04:52:26.647Z,18.1
2019-02-18T04:53:16.668Z,18
2019-02-18T04:54:06.761Z,17.9
2019-02-18T04:54:56.837Z,18.1
2019-02-18T04:55:46.263Z,18.6
2019-02-18T04:56:36.995Z,19.1
2019-02-18T04:57:27.339Z,19.5
2019-02-18T04:58:17.343Z,19.8
2019-02-18T04:59:06.868Z,20
2019-02-18T04:59:57.462Z,20.2
2019-02-18T05:00:46.166Z,20.4
2019-02-18T05:01:37.863Z,20.5
2019-02-18T05:02:27.346Z,20.6
2019-02-18T05:03:17.392Z,20.8
2019-02-18T05:04:07.064Z,20.8
2019-02-18T05:04:57.835Z,20.9
2019-02-18T05:05:47.572Z,20.9
2019-02-18T05:06:37.440Z,20.4
2019-02-18T05:07:28.229Z,20.1
2019-02-18T05:08:18.315Z,19.8
2019-02-18T05:09:14.096Z,19.5
2019-02-18T05:09:57.870Z,19.3
2019-02-18T05:10:48.758Z,19.1
2019-02-18T05:11:38.254Z,18.9
2019-02-18T05:12:28.013Z,18.8
2019-02-18T05:13:18.132Z,18.8
2019-02-18T05:14:07.684Z,18.6
2019-02-18T05:14:58.462Z,18.5
2019-02-18T05:15:49.196Z,18.5
2019-02-18T05:16:38.088Z,18.4
2019-02-18T05:17:28.072Z,18.3
2019-02-18T05:18:17.825Z,18.2
2019-02-18T05:19:08.509Z,18.1
2019-02-18T05:19:58.304Z,17.9
2019-02-18T05:20:48.418Z,17.8
2019-02-18T05:21:38.703Z,17.9
2019-02-18T05:22:28.464Z,18.4
2019-02-18T05:23:18.830Z,18.9
2019-02-18T05:24:07.892Z,19.3
2019-02-18T05:24:58.907Z,19.6
2019-02-18T05:25:48.732Z,19.9
2019-02-18T05:26:38.762Z,20.1
2019-02-18T05:27:40.860Z,20.3
2019-02-18T05:28:19.448Z,20.4
2019-02-18T05:29:09.265Z,20.6
2019-02-18T05:29:58.982Z,20.7
2019-02-18T05:30:48.821Z,20.8
2019-02-18T05:31:39.707Z,20.9
2019-02-18T05:32:29.517Z,21
2019-02-18T05:33:20.059Z,20.7
2019-02-18T05:34:09.718Z,20.2
2019-02-18T05:34:58.999Z,19.9
2019-02-18T05:35:49.340Z,19.6
2019-02-18T05:36:39.997Z,19.4
2019-02-18T05:37:28.817Z,19.1
2019-02-18T05:38:19.520Z,19
2019-02-18T05:39:21.809Z,18.9
2019-02-18T05:40:02.085Z,18.8
2019-02-18T05:40:50.136Z,18.6
2019-02-18T05:41:39.377Z,18.6
2019-02-18T05:42:30.031Z,18.5
2019-02-18T05:43:19.795Z,18.4
2019-02-18T05:44:09.521Z,18.4
2019-02-18T05:45:00.852Z,18.2
2019-02-18T05:45:50.406Z,18.1
2019-02-18T05:46:39.880Z,18
2019-02-18T05:47:29.809Z,17.9
2019-02-18T05:48:20.625Z,17.9
2019-02-18T05:49:09.281Z,18.3
2019-02-18T05:50:01.448Z,18.8
2019-02-18T05:50:50.457Z,19.3
2019-02-18T05:51:41.019Z,19.6
2019-02-18T05:52:30.630Z,19.8
2019-02-18T05:53:20.172Z,20
2019-02-18T05:54:10.930Z,20.1
2019-02-18T05:55:01.443Z,20.3
2019-02-18T05:55:50.534Z,20.4
2019-02-18T05:56:41.415Z,20.6
2019-02-18T05:57:32.069Z,20.7
2019-02-18T05:58:21.497Z,20.8
2019-02-18T05:59:11.322Z,20.9
2019-02-18T06:00:01.341Z,20.9
2019-02-18T06:00:50.966Z,20.6
2019-02-18T06:01:41.138Z,20.2
2019-02-18T06:02:31.942Z,19.8
2019-02-18T06:03:20.740Z,19.6
2019-02-18T06:06:09.348Z,18.9
2019-02-18T06:07:00.334Z,18.8
2019-02-18T06:08:38.542Z,18.6
2019-02-18T06:09:38.551Z,18.5
2019-02-18T06:10:23.898Z,18.4
2019-02-18T06:11:08.916Z,18.3
2019-02-18T06:11:59.367Z,18.3
2019-02-18T06:12:49.245Z,18.1
2019-02-18T06:13:39.527Z,18
2019-02-18T06:14:30.300Z,17.9
2019-02-18T06:15:19.755Z,17.8
2019-02-18T06:16:10.174Z,18.1
2019-02-18T06:17:03.687Z,18.6
2019-02-18T06:17:51.079Z,19.1
2019-02-18T06:18:41.064Z,19.5
2019-02-18T06:19:30.147Z,19.8
2019-02-18T06:20:19.947Z,19.9
2019-02-18T06:21:10.206Z,20.1
2019-02-18T06:21:59.785Z,20.3
2019-02-18T06:22:51.333Z,20.4
2019-02-18T06:23:55.314Z,20.6
2019-02-18T06:24:30.604Z,20.7
2019-02-18T06:25:36.050Z,20.8
2019-02-18T06:26:11.635Z,20.9
2019-02-18T06:27:01.390Z,21
2019-02-18T06:27:53.498Z,20.6
2019-02-18T06:28:41.047Z,20.1
2019-02-18T06:29:31.676Z,19.8
2019-02-18T06:30:20.595Z,19.6
2019-02-18T06:31:11.803Z,19.3
2019-02-18T06:32:00.703Z,19.1
2019-02-18T06:32:51.708Z,19
2019-02-18T06:33:41.075Z,18.9
2019-02-18T06:34:32.078Z,18.8
2019-02-18T06:36:11.250Z,18.6
2019-02-18T06:37:01.456Z,18.5
2019-02-18T06:37:51.611Z,18.4
2019-02-18T06:38:41.353Z,17.8
2019-02-18T06:39:44.191Z,17.1
2019-02-18T06:40:21.912Z,16.9
2019-02-18T06:41:10.992Z,16.9
2019-02-18T06:42:01.888Z,17.1
2019-02-18T06:42:51.465Z,17.1
2019-02-18T06:43:42.572Z,17.1
2019-02-18T06:44:31.260Z,17.1
2019-02-18T06:45:22.166Z,17.2
2019-02-18T06:46:11.925Z,17.2
2019-02-18T06:47:03.027Z,17.1
2019-02-18T06:48:06.133Z,17.1
2019-02-18T06:48:42.352Z,17.1
2019-02-18T06:52:17.530Z,16.9
2019-02-18T06:52:52.067Z,16.9
2019-02-18T06:53:43.224Z,16.9
2019-02-18T06:54:47.987Z,16.8
2019-02-18T06:55:22.549Z,16.8
2019-02-18T06:56:12.564Z,16.7
2019-02-18T06:57:03.290Z,16.7
2019-02-18T06:57:53.271Z,16.6
2019-02-18T06:58:42.217Z,16.6
2019-02-18T06:59:33.109Z,16.5
2019-02-18T07:00:23.601Z,16.4
2019-02-18T07:01:13.231Z,16.4
2019-02-18T07:02:02.540Z,16.3
2019-02-18T07:02:54.379Z,16.3
2019-02-18T07:03:42.576Z,16.2
2019-02-18T07:06:09.111Z,16
2019-02-18T07:07:00.006Z,16
2019-02-18T07:07:48.456Z,15.9
2019-02-18T07:08:39.199Z,15.9
2019-02-18T07:09:29.116Z,15.9
2019-02-18T07:10:18.044Z,15.8
2019-02-18T07:11:10.373Z,15.8
2019-02-18T07:11:58.738Z,15.7
2019-02-18T07:12:49.873Z,15.7
2019-02-18T07:13:40.646Z,15.6
2019-02-18T07:14:29.760Z,15.6
2019-02-18T07:15:19.201Z,15.6
2019-02-18T07:16:10.411Z,15.5
2019-02-18T07:17:00.731Z,15.4
2019-02-18T07:17:49.646Z,15.4
2019-02-18T07:18:40.308Z,15.4
2019-02-18T07:20:02.213Z,15.3
2019-02-18T07:20:20.700Z,15.3
2019-02-18T07:21:08.765Z,15.3
2019-02-18T07:22:00.788Z,15.2
2019-02-18T07:22:51.360Z,15.2
2019-02-18T07:23:40.349Z,15.1
2019-02-18T07:24:30.497Z,15.1
2019-02-18T07:25:21.031Z,15.1
2019-02-18T07:26:10.517Z,15
2019-02-18T07:27:00.727Z,15
2019-02-18T07:27:51.162Z,14.9
2019-02-18T07:28:39.886Z,14.9
2019-02-18T07:29:30.747Z,14.9
2019-02-18T07:30:20.280Z,14.8
2019-02-18T07:31:11.179Z,14.8
2019-02-18T07:32:01.785Z,14.8
2019-02-18T07:32:51.192Z,14.7
2019-02-18T07:33:40.505Z,14.7
2019-02-18T07:34:31.854Z,14.6
2019-02-18T07:35:21.773Z,14.6
2019-02-18T07:36:11.586Z,14.6
2019-02-18T07:37:01.636Z,14.6
2019-02-18T07:38:05.531Z,14.5
2019-02-18T07:38:41.156Z,14.5
2019-02-18T07:39:30.110Z,14.4
2019-02-18T07:40:21.122Z,14.4
2019-02-18T07:41:12.071Z,14.4
2019-02-18T07:42:01.314Z,14.4
2019-02-18T07:42:51.969Z,14.3
2019-02-18T07:43:41.786Z,14.3
2019-02-18T07:44:31.787Z,14.3
2019-02-18T07:45:22.394Z,14.3
2019-02-18T07:46:12.116Z,14.2
2019-02-18T07:47:02.568Z,14.2
2019-02-18T07:47:52.000Z,14.1
2019-02-18T07:48:44.758Z,14.1
2019-02-18T07:49:31.605Z,14.1
2019-02-18T07:50:29.229Z,14.1
2019-02-18T07:51:15.716Z,14.1
2019-02-18T07:52:02.579Z,14
2019-02-18T07:52:51.802Z,13.9
2019-02-18T07:53:41.936Z,13.9
2019-02-18T07:54:32.778Z,13.9
2019-02-18T07:55:22.516Z,13.9
2019-02-18T07:56:12.943Z,13.9
2019-02-18T07:57:02.336Z,13.9
2019-02-18T07:57:52.991Z,13.8
2019-02-18T07:58:42.508Z,13.8
2019-02-18T07:59:32.039Z,13.8
2019-02-18T08:00:23.151Z,13.8
2019-02-18T08:01:13.283Z,13.8
2019-02-18T08:02:03.581Z,13.8
2019-02-18T08:02:53.388Z,13.7
2019-02-18T08:03:42.579Z,13.7
2019-02-18T08:04:32.866Z,13.6
2019-02-18T08:05:23.292Z,13.6
2019-02-18T08:06:12.734Z,13.6
2019-02-18T08:07:02.260Z,13.6
2019-02-18T08:07:53.958Z,13.6
2019-02-18T08:08:42.742Z,13.6
2019-02-18T08:09:32.947Z,13.5
2019-02-18T08:10:23.835Z,13.5
2019-02-18T08:11:12.635Z,13.5
2019-02-18T08:12:03.357Z,13.4
2019-02-18T08:12:52.607Z,13.4
2019-02-18T08:13:44.210Z,13.4
2019-02-18T08:14:33.903Z,13.4
2019-02-18T08:15:23.939Z,13.4
2019-02-18T08:16:12.595Z,13.4
2019-02-18T08:17:04.135Z,13.4
2019-02-18T08:17:53.584Z,13.4
2019-02-18T08:18:43.409Z,13.3
2019-02-18T08:19:34.487Z,13.3
2019-02-18T08:20:24.034Z,13.3
2019-02-18T08:21:13.521Z,13.3
2019-02-18T08:22:03.349Z,13.3
2019-02-18T08:22:54.234Z,13.2
2019-02-18T08:23:44.766Z,13.2
2019-02-18T08:24:33.824Z,13.2
2019-02-18T08:25:23.879Z,13.2
2019-02-18T08:26:13.759Z,13.2
2019-02-18T08:27:04.894Z,13.1
2019-02-18T08:27:53.826Z,13.1
2019-02-18T08:28:45.256Z,13.1
2019-02-18T08:29:34.678Z,13.1
2019-02-18T08:30:24.253Z,13.1
2019-02-18T08:31:14.436Z,13.1
2019-02-18T08:32:05.338Z,13.1
2019-02-18T08:32:55.096Z,13
2019-02-18T08:33:45.486Z,13
2019-02-18T08:34:35.506Z,13.1
2019-02-18T08:35:25.074Z,13
2019-02-18T08:36:15.081Z,13
2019-02-18T08:37:05.421Z,13
2019-02-18T08:37:56.194Z,13
2019-02-18T08:38:45.738Z,12.9
2019-02-18T08:39:36.294Z,12.9
2019-02-18T08:40:31.363Z,12.9
2019-02-18T08:41:14.966Z,12.9
2019-02-18T08:42:05.546Z,12.9
2019-02-18T08:42:55.647Z,12.9
2019-02-18T08:43:45.075Z,12.9
2019-02-18T08:44:35.910Z,12.9
2019-02-18T08:45:26.345Z,12.9
2019-02-18T08:46:16.053Z,12.8
2019-02-18T08:47:05.290Z,12.8
2019-02-18T08:47:55.339Z,12.8
2019-02-18T08:48:46.805Z,12.8
2019-02-18T08:49:36.633Z,12.8
2019-02-18T08:50:26.048Z,12.8
2019-02-18T08:51:15.914Z,12.8
2019-02-18T08:52:05.115Z,12.8
2019-02-18T08:52:55.665Z,12.8
2019-02-18T08:53:48.657Z,12.8
2019-02-18T08:54:35.673Z,12.8
2019-02-18T08:55:26.301Z,12.7
2019-02-18T08:56:17.542Z,12.7
2019-02-18T08:57:05.681Z,12.7
2019-02-18T08:57:56.547Z,12.7
2019-02-18T08:58:46.689Z,12.7
2019-02-18T08:59:37.279Z,12.7
2019-02-18T09:00:27.294Z,12.7
2019-02-18T09:01:17.359Z,12.6
2019-02-18T09:02:07.456Z,12.6
2019-02-18T09:02:58.061Z,12.6
2019-02-18T09:03:46.735Z,12.6
2019-02-18T09:04:37.602Z,12.6
2019-02-18T09:05:28.439Z,12.6
2019-02-18T09:06:16.847Z,12.6
2019-02-18T09:07:08.414Z,12.6
2019-02-18T09:07:57.059Z,12.6
2019-02-18T09:08:47.699Z,12.6
2019-02-18T09:09:37.903Z,12.6
2019-02-18T09:10:39.739Z,12.5
2019-02-18T09:11:18.372Z,12.5
2019-02-18T09:12:08.368Z,12.5
2019-02-18T09:12:57.923Z,12.5
2019-02-18T09:13:48.633Z,12.5
2019-02-18T09:14:37.711Z,12.5
2019-02-18T09:15:28.623Z,12.5
2019-02-18T09:16:18.651Z,12.4
2019-02-18T09:17:07.453Z,12.4
2019-02-18T09:17:58.670Z,12.4
2019-02-18T09:18:48.269Z,12.4
2019-02-18T09:19:38.432Z,12.4
2019-02-18T09:20:31.825Z,12.4
2019-02-18T09:21:17.674Z,12.4
2019-02-18T09:22:08.514Z,12.4
2019-02-18T09:22:58.118Z,12.4
2019-02-18T09:23:49.245Z,12.4
2019-02-18T09:24:38.665Z,12.3
2019-02-18T09:25:29.393Z,12.4
2019-02-18T09:26:18.107Z,12.3
2019-02-18T09:27:07.667Z,12.3
2019-02-18T09:27:58.271Z,12.3
2019-02-18T09:28:48.255Z,12.3
2019-02-18T09:29:38.290Z,12.3
2019-02-18T09:30:28.407Z,12.3
2019-02-18T09:31:18.480Z,12.3
2019-02-18T09:32:07.954Z,12.3
2019-02-18T09:32:57.514Z,12.3
2019-02-18T09:33:47.807Z,12.3
2019-02-18T09:34:38.457Z,12.3
2019-02-18T09:35:29.292Z,12.3
2019-02-18T09:36:20.676Z,12.3
2019-02-18T09:37:08.690Z,12.3
2019-02-18T09:37:58.758Z,12.3
2019-02-18T09:38:49.821Z,12.3
2019-02-18T09:39:39.454Z,12.3
2019-02-18T09:40:28.318Z,12.3
2019-02-18T09:41:19.102Z,12.3
2019-02-18T09:42:10.053Z,12.3
2019-02-18T09:42:58.765Z,12.2
2019-02-18T09:43:49.327Z,12.2
2019-02-18T09:44:39.034Z,12.2
2019-02-18T09:45:30.006Z,12.2
2019-02-18T09:46:20.261Z,12.2
2019-02-18T09:47:10.016Z,12.2
2019-02-18T09:48:01.786Z,12.2
2019-02-18T09:48:49.897Z,12.2
2019-02-18T09:49:40.513Z,12.2
2019-02-18T09:50:30.469Z,12.2
2019-02-18T09:51:20.940Z,12.2
2019-02-18T09:52:10.516Z,12.1
2019-02-18T09:53:02.713Z,12.2
2019-02-18T09:53:51.322Z,12.2
2019-02-18T09:54:40.086Z,12.1
2019-02-18T09:55:30.316Z,12.1
2019-02-18T09:56:20.723Z,12.1
2019-02-18T09:57:11.490Z,12.1
2019-02-18T09:58:00.773Z,12.1
2019-02-18T09:58:53.309Z,12.1
2019-02-18T09:59:41.953Z,12.1
2019-02-18T10:00:30.763Z,12.1
2019-02-18T10:01:21.286Z,12.1
2019-02-18T10:02:11.569Z,12.1
2019-02-18T10:03:01.318Z,12.1
2019-02-18T10:03:50.615Z,12.1
2019-02-18T10:04:41.831Z,12.1
2019-02-18T10:07:09.561Z,12.1
2019-02-18T10:07:58.773Z,12.1
2019-02-18T10:08:49.410Z,12.1
2019-02-18T10:09:38.320Z,12.1
2019-02-18T10:10:30.110Z,12.1
2019-02-18T10:11:19.250Z,12.1
2019-02-18T10:12:20.608Z,12.1
2019-02-18T10:13:02.437Z,12.1
2019-02-18T10:13:48.602Z,12.1
2019-02-18T10:14:39.800Z,12.1
2019-02-18T10:15:30.223Z,12.1
2019-02-18T10:16:19.947Z,12.1
2019-02-18T10:17:09.939Z,12.1
2019-02-18T10:18:00.039Z,12.1
2019-02-18T10:18:49.487Z,12.1
2019-02-18T10:19:39.339Z,12
2019-02-18T10:20:30.452Z,12.1
2019-02-18T10:21:20.373Z,12.1
2019-02-18T10:22:09.464Z,12.1
2019-02-18T10:22:59.877Z,12
2019-02-18T10:23:50.394Z,12
2019-02-18T10:24:52.689Z,12.1
2019-02-18T10:25:30.823Z,12
2019-02-18T10:26:20.042Z,12
2019-02-18T10:27:09.733Z,12
2019-02-18T10:28:00.919Z,12
2019-02-18T10:28:51.046Z,12
2019-02-18T10:29:40.776Z,12
2019-02-18T10:30:30.620Z,12
2019-02-18T10:31:20.109Z,12
2019-02-18T10:32:10.981Z,12
2019-02-18T10:33:00.487Z,12
2019-02-18T10:33:48.898Z,12
2019-02-18T10:34:39.804Z,12
2019-02-18T10:35:33.455Z,12
2019-02-18T10:36:20.678Z,12
2019-02-18T10:37:11.578Z,12
2019-02-18T10:38:04.281Z,12
2019-02-18T10:38:51.182Z,12
2019-02-18T10:39:41.262Z,12
2019-02-18T10:40:30.738Z,12
2019-02-18T10:41:23.826Z,12
2019-02-18T10:42:10.306Z,12
2019-02-18T10:43:01.588Z,12
2019-02-18T10:43:51.504Z,12
2019-02-18T10:44:41.674Z,12
2019-02-18T10:45:32.605Z,12
2019-02-18T10:46:22.106Z,12
2019-02-18T10:47:12.981Z,11.9
2019-02-18T10:48:02.463Z,11.9
2019-02-18T10:48:52.213Z,12
2019-02-18T10:49:41.978Z,11.9
2019-02-18T10:50:34.883Z,12
2019-02-18T10:51:22.023Z,12
2019-02-18T10:52:12.643Z,11.9
2019-02-18T10:53:02.845Z,11.9
2019-02-18T10:53:53.070Z,11.9
2019-02-18T10:54:42.243Z,12
2019-02-18T10:55:33.725Z,11.9
2019-02-18T10:56:25.102Z,11.9
2019-02-18T10:57:13.047Z,11.9
2019-02-18T10:58:02.360Z,12
2019-02-18T10:58:52.062Z,11.9
2019-02-18T10:59:43.937Z,12
2019-02-18T11:00:32.757Z,11.9
2019-02-18T11:01:22.519Z,11.9
2019-02-18T11:02:13.287Z,11.9
2019-02-18T11:03:02.616Z,11.9
2019-02-18T11:03:53.349Z,11.9
2019-02-18T11:04:42.210Z,11.9
2019-02-18T11:05:35.534Z,11.9
2019-02-18T11:06:23.198Z,11.9
2019-02-18T11:07:12.361Z,11.9
2019-02-18T11:08:02.778Z,11.9
2019-02-18T11:08:53.251Z,11.9
2019-02-18T11:09:43.342Z,11.9
2019-02-18T11:10:33.394Z,11.9
2019-02-18T11:11:25.669Z,11.9
2019-02-18T11:12:13.071Z,11.9
2019-02-18T11:13:05.921Z,11.9
2019-02-18T11:13:53.896Z,11.9
2019-02-18T11:14:42.923Z,11.9
2019-02-18T11:15:33.261Z,11.9
2019-02-18T11:16:25.794Z,11.9
2019-02-18T11:17:14.206Z,11.9
2019-02-18T11:18:04.789Z,11.9
2019-02-18T11:18:53.241Z,11.9
2019-02-18T11:19:43.616Z,11.9
2019-02-18T11:20:33.868Z,11.9
2019-02-18T11:21:24.768Z,11.9
2019-02-18T11:22:16.288Z,11.9
2019-02-18T11:23:03.807Z,11.9
2019-02-18T11:23:55.241Z,11.9
2019-02-18T11:24:44.223Z,11.9
2019-02-18T11:25:37.042Z,11.9
2019-02-18T11:26:24.263Z,11.9
2019-02-18T11:27:14.883Z,11.9
2019-02-18T11:28:04.466Z,11.9
2019-02-18T11:28:55.329Z,11.9
2019-02-18T11:29:44.845Z,11.9